createdAt,value
2023-04-01T00:02:02.928Z,45.03
2023-04-01T00:04:32.145Z,44.58
2023-04-01T00:07:04.154Z,44.64
2023-04-01T00:09:32.668Z,44.68
2023-04-01T00:12:02.612Z,44.47
2023-04-01T00:14:32.029Z,44.48
2023-04-01T00:17:02.893Z,44.42
2023-04-01T00:19:32.198Z,44.34
2023-04-01T00:22:03.189Z,44.23
2023-04-01T00:24:32.351Z,44.13
2023-04-01T00:27:02.637Z,44.15
2023-04-01T00:29:32.588Z,44.03
2023-04-01T00:32:03.505Z,44.15
2023-04-01T00:34:32.694Z,44.09
2023-04-01T00:37:02.880Z,44.06
2023-04-01T00:39:33.100Z,43.33
2023-04-01T00:42:04.480Z,43.73
2023-04-01T00:44:36.394Z,44.07
2023-04-01T00:47:04.746Z,44.00
2023-04-01T00:49:41.704Z,44.00
2023-04-01T00:52:15.137Z,43.24
2023-04-01T00:54:48.378Z,43.99
2023-04-01T00:57:36.442Z,44.74
2023-04-01T01:00:11.758Z,44.68
2023-04-01T01:02:52.523Z,44.58
2023-04-01T01:05:34.660Z,44.68
2023-04-01T01:08:32.031Z,44.75
2023-04-01T01:11:04.525Z,45.41
2023-04-01T01:13:53.623Z,45.96
2023-04-01T01:16:36.753Z,45.75
2023-04-01T01:19:23.760Z,44.48
2023-04-01T01:22:21.936Z,44.38
2023-04-01T01:25:24.624Z,44.17
2023-04-01T01:28:34.859Z,44.29
2023-04-01T01:31:12.852Z,45.58
2023-04-01T01:34:03.869Z,44.71
2023-04-01T01:36:38.860Z,44.00
2023-04-01T01:39:12.756Z,43.96
2023-04-01T01:41:44.727Z,44.09
2023-04-01T01:44:16.060Z,43.69
2023-04-01T01:46:47.652Z,43.91
2023-04-01T01:49:20.190Z,43.77
2023-04-01T01:51:49.814Z,44.05
2023-04-01T01:54:20.810Z,44.22
2023-04-01T01:56:53.384Z,43.37
2023-04-01T01:59:26.880Z,43.67
2023-04-01T02:02:02.876Z,43.96
2023-04-01T02:04:32.078Z,43.82
2023-04-01T02:07:07.270Z,43.99
2023-04-01T02:09:37.165Z,44.29
2023-04-01T02:12:10.847Z,44.52
2023-04-01T02:14:54.465Z,44.54
2023-04-01T02:17:30.384Z,44.78
2023-04-01T02:20:08.015Z,44.16
2023-04-01T02:22:46.522Z,43.88
2023-04-01T02:25:20.661Z,43.82
2023-04-01T02:27:49.538Z,43.87
2023-04-01T02:30:20.435Z,43.84
2023-04-01T02:32:52.005Z,44.19
2023-04-01T02:35:21.155Z,44.74
2023-04-01T02:37:52.356Z,44.39
2023-04-01T02:40:21.581Z,44.53
2023-04-01T02:42:52.200Z,44.16
2023-04-01T02:45:24.902Z,44.64
2023-04-01T02:47:53.472Z,44.24
2023-04-01T02:50:23.282Z,44.53
2023-04-01T02:52:52.315Z,44.28
2023-04-01T02:55:21.455Z,44.60
2023-04-01T02:57:51.154Z,44.26
2023-04-01T03:00:20.573Z,44.20
2023-04-01T03:02:49.268Z,44.44
2023-04-01T03:05:18.668Z,44.20
2023-04-01T03:07:47.458Z,44.14
2023-04-01T03:10:16.669Z,44.05
2023-04-01T03:12:45.398Z,44.23
2023-04-01T03:15:16.337Z,44.94
2023-04-01T03:17:48.205Z,44.95
2023-04-01T03:20:17.252Z,45.07
2023-04-01T03:22:48.108Z,45.06
2023-04-01T03:25:17.040Z,45.20
2023-04-01T03:27:46.690Z,45.24
2023-04-01T03:30:15.802Z,45.19
2023-04-01T03:32:52.359Z,45.23
2023-04-01T03:35:22.149Z,45.31
2023-04-01T03:37:55.299Z,46.02
2023-04-01T03:40:24.887Z,45.51
2023-04-01T03:42:55.481Z,45.40
2023-04-01T03:45:24.548Z,45.54
2023-04-01T03:47:53.030Z,45.40
2023-04-01T03:50:23.257Z,45.42
2023-04-01T03:52:52.422Z,45.20
2023-04-01T03:55:21.795Z,44.77
2023-04-01T03:57:51.649Z,44.63
2023-04-01T04:00:21.596Z,44.63
2023-04-01T04:02:55.442Z,47.85
2023-04-01T04:05:31.023Z,45.87
2023-04-01T04:08:02.756Z,45.69
2023-04-01T04:10:32.283Z,45.50
2023-04-01T04:13:02.857Z,45.11
2023-04-01T04:15:35.016Z,45.59
2023-04-01T04:18:03.972Z,46.43
2023-04-01T04:20:32.945Z,45.99
2023-04-01T04:23:02.690Z,45.54
2023-04-01T04:25:31.677Z,45.15
2023-04-01T04:28:02.521Z,45.08
2023-04-01T04:30:32.195Z,45.48
2023-04-01T04:33:02.666Z,45.45
2023-04-01T04:35:32.268Z,45.84
2023-04-01T04:38:02.380Z,46.07
2023-04-01T04:40:32.194Z,46.79
2023-04-01T04:43:02.553Z,46.06
2023-04-01T04:45:33.517Z,45.79
2023-04-01T04:48:02.859Z,45.82
2023-04-01T04:50:32.159Z,45.95
2023-04-01T04:53:02.781Z,45.79
2023-04-01T04:55:32.940Z,45.22
2023-04-01T04:58:22.061Z,45.72
2023-04-01T05:00:52.510Z,45.23
2023-04-01T05:03:27.815Z,44.95
2023-04-01T05:06:00.073Z,45.28
2023-04-01T05:08:29.291Z,45.47
2023-04-01T05:11:00.468Z,45.25
2023-04-01T05:13:32.471Z,45.24
2023-04-01T05:16:02.842Z,45.24
2023-04-01T05:18:32.068Z,46.32
2023-04-01T05:21:01.930Z,46.21
2023-04-01T05:23:33.972Z,46.00
2023-04-01T05:26:12.310Z,46.05
2023-04-01T05:28:41.439Z,45.36
2023-04-01T05:31:11.721Z,45.18
2023-04-01T05:33:42.709Z,45.50
2023-04-01T05:36:15.892Z,45.15
2023-04-01T05:38:47.640Z,45.10
2023-04-01T05:41:19.005Z,45.36
2023-04-01T05:43:48.377Z,45.66
2023-04-01T05:46:36.990Z,45.25
2023-04-01T05:49:23.240Z,46.13
2023-04-01T05:51:53.002Z,45.40
2023-04-01T05:54:22.878Z,45.72
2023-04-01T05:56:52.408Z,45.79
2023-04-01T05:59:22.841Z,45.60
2023-04-01T06:01:53.356Z,45.41
2023-04-01T06:04:23.337Z,45.52
2023-04-01T06:06:53.610Z,45.34
2023-04-01T06:09:32.707Z,45.72
2023-04-01T06:12:29.209Z,46.72
2023-04-01T06:15:31.238Z,47.37
2023-04-01T06:18:33.978Z,46.71
2023-04-01T06:21:06.745Z,46.38
2023-04-01T06:24:00.878Z,46.28
2023-04-01T06:26:50.793Z,46.23
2023-04-01T06:29:37.091Z,46.15
2023-04-01T06:32:32.416Z,47.00
2023-04-01T06:35:24.831Z,46.92
2023-04-01T06:38:17.417Z,47.36
2023-04-01T06:41:01.049Z,48.46
2023-04-01T06:44:09.949Z,48.50
2023-04-01T06:47:01.803Z,48.81
2023-04-01T06:50:19.703Z,48.94
2023-04-01T06:53:23.231Z,48.87
2023-04-01T06:56:17.081Z,48.56
2023-04-01T06:59:15.028Z,48.26
2023-04-01T07:01:49.086Z,48.07
2023-04-01T07:04:27.032Z,48.09
2023-04-01T07:07:18.085Z,48.11
2023-04-01T07:10:03.167Z,47.88
2023-04-01T07:12:44.673Z,47.54
2023-04-01T07:15:20.701Z,47.76
2023-04-01T07:17:55.775Z,47.67
2023-04-01T07:20:29.241Z,47.00
2023-04-01T07:23:07.148Z,47.00
2023-04-01T07:25:51.930Z,46.95
2023-04-01T07:28:39.212Z,47.45
2023-04-01T07:31:42.592Z,47.94
2023-04-01T07:34:21.355Z,48.05
2023-04-01T07:36:57.706Z,47.95
2023-04-01T07:39:32.521Z,47.58
2023-04-01T07:42:48.422Z,48.04
2023-04-01T07:45:32.599Z,47.61
2023-04-01T07:48:08.758Z,47.46
2023-04-01T07:51:09.184Z,47.76
2023-04-01T07:54:15.252Z,47.86
2023-04-01T07:57:16.815Z,47.71
2023-04-01T08:00:01.662Z,47.39
2023-04-01T08:02:53.791Z,47.48
2023-04-01T08:05:36.552Z,47.41
2023-04-01T08:08:32.808Z,47.40
2023-04-01T08:11:29.272Z,47.68
2023-04-01T08:15:12.795Z,46.95
2023-04-01T08:18:04.486Z,46.82
2023-04-01T08:20:47.766Z,46.70
2023-04-01T08:23:24.587Z,46.54
2023-04-01T08:25:56.972Z,46.52
2023-04-01T08:28:43.924Z,46.06
2023-04-01T08:31:33.626Z,46.87
2023-04-01T08:34:08.230Z,46.85
2023-04-01T08:36:43.115Z,46.58
2023-04-01T08:39:32.203Z,46.75
2023-04-01T08:42:36.311Z,47.19
2023-04-01T08:45:36.467Z,46.71
2023-04-01T08:48:46.736Z,46.77
2023-04-01T08:51:19.316Z,47.03
2023-04-01T08:54:16.485Z,47.27
2023-04-01T08:57:12.620Z,47.16
2023-04-01T09:00:36.580Z,47.54
2023-04-01T09:03:29.310Z,47.63
2023-04-01T09:06:23.008Z,47.56
2023-04-01T09:09:27.018Z,47.30
2023-04-01T09:12:12.401Z,47.22
2023-04-01T09:14:47.751Z,47.40
2023-04-01T09:17:48.364Z,47.67
2023-04-01T09:20:49.951Z,47.88
2023-04-01T09:24:01.660Z,47.79
2023-04-01T09:26:52.256Z,47.87
2023-04-01T09:29:36.684Z,47.68
2023-04-01T09:32:36.901Z,48.40
2023-04-01T09:35:26.817Z,48.64
2023-04-01T09:38:03.192Z,48.07
2023-04-01T09:40:50.133Z,48.47
2023-04-01T09:44:21.540Z,48.20
2023-04-01T09:47:21.415Z,47.88
2023-04-01T09:50:16.701Z,47.77
2023-04-01T09:53:13.340Z,47.32
2023-04-01T09:56:34.273Z,47.71
2023-04-01T09:59:35.027Z,47.51
2023-04-01T10:02:37.217Z,47.92
2023-04-01T10:05:47.484Z,47.99
2023-04-01T10:08:36.766Z,48.30
2023-04-01T10:11:27.247Z,48.35
2023-04-01T10:14:24.875Z,49.20
2023-04-01T10:17:02.969Z,49.88
2023-04-01T10:20:05.657Z,49.88
2023-04-01T10:22:52.706Z,49.83
2023-04-01T10:25:25.500Z,49.54
2023-04-01T10:28:36.663Z,49.73
2023-04-01T10:32:09.791Z,50.04
2023-04-01T10:35:11.290Z,49.64
2023-04-01T10:38:02.978Z,50.11
2023-04-01T10:41:09.851Z,49.94
2023-04-01T10:44:44.584Z,49.98
2023-04-01T10:47:53.834Z,50.16
2023-04-01T10:51:01.537Z,49.67
2023-04-01T10:53:41.385Z,49.09
2023-04-01T10:56:48.656Z,48.96
2023-04-01T10:59:49.943Z,49.35
2023-04-01T11:03:29.441Z,49.66
2023-04-01T11:06:29.529Z,49.61
2023-04-01T11:09:32.458Z,48.70
2023-04-01T11:12:29.773Z,47.88
2023-04-01T11:15:37.175Z,47.91
2023-04-01T11:18:47.763Z,48.35
2023-04-01T11:21:36.229Z,48.00
2023-04-01T11:24:35.248Z,48.45
2023-04-01T11:27:54.610Z,48.36
2023-04-01T11:30:44.968Z,48.12
2023-04-01T11:33:21.299Z,48.15
2023-04-01T11:36:17.842Z,48.43
2023-04-01T11:39:25.503Z,48.63
2023-04-01T11:43:01.887Z,49.21
2023-04-01T11:46:21.146Z,48.53
2023-04-01T11:49:12.392Z,48.66
2023-04-01T11:52:08.267Z,48.72
2023-04-01T11:55:19.078Z,49.19
2023-04-01T11:58:04.130Z,49.10
2023-04-01T12:00:55.173Z,49.20
2023-04-01T12:03:57.321Z,49.10
2023-04-01T12:06:47.555Z,49.38
2023-04-01T12:09:35.139Z,48.33
2023-04-01T12:12:31.797Z,48.64
2023-04-01T12:15:02.686Z,48.13
2023-04-01T12:17:35.012Z,47.55
2023-04-01T12:20:44.897Z,48.47
2023-04-01T12:23:39.551Z,48.89
2023-04-01T12:26:24.988Z,48.90
2023-04-01T12:29:25.986Z,49.15
2023-04-01T12:32:04.865Z,48.89
2023-04-01T12:34:55.008Z,50.43
2023-04-01T12:37:47.362Z,51.24
2023-04-01T12:40:52.846Z,51.26
2023-04-01T12:43:24.387Z,52.40
2023-04-01T12:45:57.248Z,50.63
2023-04-01T12:48:43.061Z,49.86
2023-04-01T12:51:32.213Z,49.99
2023-04-01T12:54:41.823Z,50.36
2023-04-01T12:58:09.627Z,50.53
2023-04-01T13:01:12.652Z,51.28
2023-04-01T13:03:55.294Z,50.81
2023-04-01T13:06:44.923Z,50.95
2023-04-01T13:09:36.496Z,50.05
2023-04-01T13:12:30.833Z,49.92
2023-04-01T13:15:12.490Z,48.62
2023-04-01T13:18:03.555Z,48.58
2023-04-01T13:21:03.140Z,48.30
2023-04-01T13:23:44.680Z,47.86
2023-04-01T13:26:44.178Z,48.25
2023-04-01T13:29:28.082Z,47.49
2023-04-01T13:32:33.369Z,48.25
2023-04-01T13:35:43.722Z,48.42
2023-04-01T13:38:31.312Z,48.35
2023-04-01T13:41:24.624Z,48.36
2023-04-01T13:44:21.184Z,48.49
2023-04-01T13:47:05.697Z,47.66
2023-04-01T13:50:11.177Z,48.26
2023-04-01T13:53:11.027Z,47.79
2023-04-01T13:55:48.602Z,47.38
2023-04-01T13:58:39.088Z,47.73
2023-04-01T14:01:21.366Z,47.34
2023-04-01T14:04:07.703Z,47.36
2023-04-01T14:07:01.077Z,48.31
2023-04-01T14:09:40.447Z,49.13
2023-04-01T14:12:31.493Z,49.37
2023-04-01T14:15:25.103Z,48.24
2023-04-01T14:18:13.412Z,47.98
2023-04-01T14:21:21.811Z,48.49
2023-04-01T14:23:57.325Z,48.49
2023-04-01T14:27:07.225Z,48.75
2023-04-01T14:29:41.598Z,48.51
2023-04-01T14:32:40.387Z,48.33
2023-04-01T14:35:29.354Z,48.45
2023-04-01T14:38:49.091Z,49.37
2023-04-01T14:41:47.676Z,49.69
2023-04-01T14:44:29.445Z,49.72
2023-04-01T14:47:01.024Z,48.48
2023-04-01T14:49:37.436Z,48.68
2023-04-01T14:52:16.790Z,48.12
2023-04-01T14:54:49.034Z,47.10
2023-04-01T14:57:31.269Z,47.03
2023-04-01T15:00:19.082Z,46.83
2023-04-01T15:03:05.250Z,46.86
2023-04-01T15:06:08.618Z,47.07
2023-04-01T15:08:55.194Z,47.53
2023-04-01T15:11:45.776Z,47.49
2023-04-01T15:14:40.607Z,47.70
2023-04-01T15:17:43.528Z,48.14
2023-04-01T15:20:33.203Z,48.04
2023-04-01T15:23:21.323Z,47.89
2023-04-01T15:25:53.917Z,47.29
2023-04-01T15:28:36.043Z,47.13
2023-04-01T15:31:32.621Z,47.30
2023-04-01T15:34:31.026Z,47.60
2023-04-01T15:37:40.643Z,47.77
2023-04-01T15:40:39.365Z,47.42
2023-04-01T15:43:24.062Z,47.46
2023-04-01T15:46:04.634Z,47.53
2023-04-01T15:49:09.617Z,47.73
2023-04-01T15:52:21.139Z,48.11
2023-04-01T15:55:37.638Z,48.11
2023-04-01T15:58:52.053Z,47.80
2023-04-01T16:01:44.824Z,47.84
2023-04-01T16:04:53.420Z,48.31
2023-04-01T16:07:37.772Z,48.27
2023-04-01T16:10:54.089Z,48.87
2023-04-01T16:14:01.527Z,49.12
2023-04-01T16:17:37.951Z,49.38
2023-04-01T16:21:14.335Z,49.49
2023-04-01T16:24:52.838Z,49.34
2023-04-01T16:28:24.824Z,49.29
2023-04-01T16:32:25.415Z,49.39
2023-04-01T16:40:45.635Z,49.42
2023-04-01T16:43:58.470Z,49.56
2023-04-01T17:02:16.063Z,50.41
2023-04-01T17:05:44.078Z,49.89
2023-04-01T17:09:09.201Z,50.16
2023-04-01T17:12:04.921Z,49.84
2023-04-01T17:14:41.662Z,49.55
2023-04-01T17:17:41.760Z,49.71
2023-04-01T17:20:21.364Z,50.55
2023-04-01T17:23:12.087Z,51.23
2023-04-01T17:26:08.155Z,52.12
2023-04-01T17:29:04.666Z,52.03
2023-04-01T17:31:48.650Z,51.65
2023-04-01T17:34:29.818Z,52.47
2023-04-01T17:37:21.671Z,51.54
2023-04-01T17:40:27.707Z,51.67
2023-04-01T17:43:03.961Z,51.28
2023-04-01T17:46:06.365Z,51.70
2023-04-01T17:48:52.926Z,51.40
2023-04-01T17:51:44.280Z,51.35
2023-04-01T17:54:24.395Z,51.25
2023-04-01T17:57:27.815Z,51.42
2023-04-01T18:00:25.318Z,51.31
2023-04-01T18:03:17.063Z,51.04
2023-04-01T18:06:01.332Z,51.64
2023-04-01T18:09:05.246Z,52.13
2023-04-01T18:11:55.696Z,51.96
2023-04-01T18:14:38.152Z,52.03
2023-04-01T18:17:31.887Z,53.86
2023-04-01T18:20:09.241Z,51.98
2023-04-01T18:22:44.664Z,51.54
2023-04-01T18:25:35.808Z,52.32
2023-04-01T18:28:36.916Z,52.24
2023-04-01T18:32:26.366Z,52.11
2023-04-01T18:35:21.709Z,51.64
2023-04-01T18:38:24.138Z,52.20
2023-04-01T18:41:29.475Z,52.39
2023-04-01T18:44:45.244Z,51.87
2023-04-01T18:47:43.264Z,53.18
2023-04-01T18:50:53.559Z,52.15
2023-04-01T18:54:09.894Z,52.12
2023-04-01T18:56:47.957Z,52.05
2023-04-01T18:59:50.196Z,52.27
2023-04-01T19:02:41.807Z,51.86
2023-04-01T19:05:20.153Z,52.02
2023-04-01T19:08:01.715Z,52.19
2023-04-01T19:10:53.625Z,52.12
2023-04-01T19:13:56.104Z,52.47
2023-04-01T19:17:19.368Z,52.62
2023-04-01T19:20:18.669Z,51.99
2023-04-01T19:23:25.645Z,52.24
2023-04-01T19:26:36.020Z,52.96
2023-04-01T19:29:38.011Z,54.05
2023-04-01T19:32:39.963Z,53.60
2023-04-01T19:35:44.921Z,53.21
2023-04-01T19:39:13.684Z,53.23
2023-04-01T19:46:37.313Z,53.06
2023-04-01T19:49:41.695Z,52.93
2023-04-01T19:53:18.167Z,52.85
2023-04-01T19:56:55.359Z,54.03
2023-04-01T20:04:08.620Z,53.19
2023-04-01T20:08:10.286Z,54.85
2023-04-01T20:11:31.353Z,53.70
2023-04-01T20:14:20.725Z,53.24
2023-04-01T20:16:52.128Z,52.86
2023-04-01T20:19:47.971Z,52.96
2023-04-01T20:22:36.299Z,52.96
2023-04-01T20:29:33.468Z,53.75
2023-04-01T20:32:20.164Z,53.64
2023-04-01T20:34:57.354Z,55.84
2023-04-01T20:38:12.469Z,54.06
2023-04-01T20:41:07.925Z,53.50
2023-04-01T20:44:45.995Z,54.54
2023-04-01T20:49:17.593Z,54.90
2023-04-01T20:53:21.543Z,54.51
2023-04-01T20:56:16.049Z,54.22
2023-04-01T20:59:09.709Z,53.35
2023-04-01T21:02:05.956Z,53.88
2023-04-01T21:05:23.144Z,53.70
2023-04-01T21:09:09.381Z,53.19
2023-04-01T21:11:56.801Z,53.39
2023-04-01T21:15:22.825Z,52.93
2023-04-01T21:18:16.231Z,52.29
2023-04-01T21:25:35.389Z,52.12
2023-04-01T21:28:33.753Z,51.91
2023-04-01T21:31:48.872Z,52.57
2023-04-01T21:34:54.476Z,53.21
2023-04-01T21:38:09.499Z,52.68
2023-04-01T21:41:19.627Z,52.39
2023-04-01T21:44:21.653Z,52.24
2023-04-01T21:47:13.507Z,51.85
2023-04-01T21:50:12.138Z,51.94
2023-04-01T21:53:15.790Z,52.70
2023-04-01T21:56:12.765Z,52.61
2023-04-01T21:59:22.204Z,52.06
2023-04-01T22:02:34.484Z,51.51
2023-04-01T22:05:34.566Z,51.81
2023-04-01T22:08:58.007Z,50.49
2023-04-01T22:12:09.469Z,50.18
2023-04-01T22:15:07.976Z,50.79
2023-04-01T22:18:00.148Z,50.35
2023-04-01T22:20:48.059Z,50.59
2023-04-01T22:29:13.451Z,49.61
2023-04-01T22:32:09.813Z,49.09
2023-04-01T22:35:09.489Z,49.34
2023-04-01T22:38:02.876Z,48.56
2023-04-01T22:45:43.608Z,48.61
2023-04-01T22:48:29.760Z,48.29
2023-04-01T22:51:05.131Z,48.45
2023-04-01T22:53:43.627Z,49.88
2023-04-01T22:56:24.547Z,48.88
2023-04-01T22:59:10.988Z,48.38
2023-04-01T23:02:09.029Z,48.57
2023-04-01T23:05:26.539Z,48.44
2023-04-01T23:08:24.965Z,48.09
2023-04-01T23:11:04.937Z,47.56
2023-04-01T23:13:41.843Z,47.30
2023-04-01T23:16:13.548Z,46.89
2023-04-01T23:18:53.843Z,46.41
2023-04-01T23:21:43.151Z,45.63
2023-04-01T23:24:15.632Z,44.91
2023-04-01T23:27:15.635Z,44.96
2023-04-01T23:29:45.219Z,44.95
2023-04-01T23:32:21.856Z,44.70
2023-04-01T23:34:57.839Z,44.65
2023-04-01T23:37:32.213Z,43.81
2023-04-01T23:40:03.376Z,43.50
2023-04-01T23:42:43.669Z,43.53
2023-04-01T23:45:22.040Z,43.39
2023-04-01T23:47:53.789Z,43.08
2023-04-01T23:50:27.557Z,43.02
2023-04-01T23:53:27.486Z,43.14
2023-04-01T23:55:57.917Z,42.64
2023-04-01T23:58:45.764Z,42.91
